sensor_id;sensor_type;location;lat;lon;timestamp;temperature;humidity
20432;DHT22;10375;49.136;10.366;2024-02-23T00:01:31;6.80;99.90
20432;DHT22;10375;49.136;10.366;2024-02-23T00:03:59;6.80;99.90
20432;DHT22;10375;49.136;10.366;2024-02-23T00:06:26;6.70;99.90
20432;DHT22;10375;49.136;10.366;2024-02-23T00:08:57;6.70;99.90
20432;DHT22;10375;49.136;10.366;2024-02-23T00:11:26;6.70;99.90
20432;DHT22;10375;49.136;10.366;2024-02-23T00:13:55;6.60;99.90
20432;DHT22;10375;49.136;10.366;2024-02-23T00:16:22;6.60;99.90
20432;DHT22;10375;49.136;10.366;2024-02-23T00:18:52;6.60;99.90
20432;DHT22;10375;49.136;10.366;2024-02-23T00:21:19;6.50;99.90
20432;DHT22;10375;49.136;10.366;2024-02-23T00:23:48;6.50;99.90
20432;DHT22;10375;49.136;10.366;2024-02-23T00:26:15;6.40;99.90
20432;DHT22;10375;49.136;10.366;2024-02-23T00:28:50;6.30;99.90
20432;DHT22;10375;49.136;10.366;2024-02-23T00:31:18;6.30;99.90
20432;DHT22;10375;49.136;10.366;2024-02-23T00:33:45;6.20;99.90
20432;DHT22;10375;49.136;10.366;2024-02-23T00:36:13;6.20;99.90
20432;DHT22;10375;49.136;10.366;2024-02-23T00:38:42;6.10;99.90
20432;DHT22;10375;49.136;10.366;2024-02-23T00:41:09;6.00;99.90
20432;DHT22;10375;49.136;10.366;2024-02-23T00:43:40;6.00;99.90
20432;DHT22;10375;49.136;10.366;2024-02-23T00:46:08;5.90;99.90
20432;DHT22;10375;49.136;10.366;2024-02-23T00:48:38;5.90;99.90
20432;DHT22;10375;49.136;10.366;2024-02-23T00:51:05;5.90;99.90
20432;DHT22;10375;49.136;10.366;2024-02-23T00:53:32;5.90;99.90
20432;DHT22;10375;49.136;10.366;2024-02-23T00:56:00;5.90;99.90
20432;DHT22;10375;49.136;10.366;2024-02-23T00:58:27;5.90;99.90
20432;DHT22;10375;49.136;10.366;2024-02-23T01:00:55;5.80;99.90
20432;DHT22;10375;49.136;10.366;2024-02-23T01:03:22;5.80;99.90
20432;DHT22;10375;49.136;10.366;2024-02-23T01:05:50;5.80;99.90
20432;DHT22;10375;49.136;10.366;2024-02-23T01:08:17;5.80;99.90
20432;DHT22;10375;49.136;10.366;2024-02-23T01:10:45;5.80;99.90
20432;DHT22;10375;49.136;10.366;2024-02-23T01:13:12;5.80;99.90
20432;DHT22;10375;49.136;10.366;2024-02-23T01:15:40;5.80;99.90
20432;DHT22;10375;49.136;10.366;2024-02-23T01:18:08;5.80;99.90
20432;DHT22;10375;49.136;10.366;2024-02-23T01:20:36;5.80;99.90
20432;DHT22;10375;49.136;10.366;2024-02-23T01:23:04;5.80;99.90
20432;DHT22;10375;49.136;10.366;2024-02-23T01:25:31;5.80;99.90
20432;DHT22;10375;49.136;10.366;2024-02-23T01:28:02;5.70;99.90
20432;DHT22;10375;49.136;10.366;2024-02-23T01:30:30;5.80;99.90
20432;DHT22;10375;49.136;10.366;2024-02-23T01:32:57;5.70;99.90
20432;DHT22;10375;49.136;10.366;2024-02-23T01:35:25;5.70;99.90
20432;DHT22;10375;49.136;10.366;2024-02-23T01:37:53;5.70;99.90
20432;DHT22;10375;49.136;10.366;2024-02-23T01:40:21;5.70;99.90
20432;DHT22;10375;49.136;10.366;2024-02-23T01:42:49;5.60;99.90
20432;DHT22;10375;49.136;10.366;2024-02-23T01:45:16;5.50;99.90
20432;DHT22;10375;49.136;10.366;2024-02-23T01:47:43;5.50;99.90
20432;DHT22;10375;49.136;10.366;2024-02-23T01:50:12;5.50;99.90
20432;DHT22;10375;49.136;10.366;2024-02-23T01:52:39;5.40;99.90
20432;DHT22;10375;49.136;10.366;2024-02-23T01:55:08;5.40;99.90
20432;DHT22;10375;49.136;10.366;2024-02-23T01:57:35;5.40;99.90
20432;DHT22;10375;49.136;10.366;2024-02-23T02:00:17;5.40;99.90
20432;DHT22;10375;49.136;10.366;2024-02-23T02:02:47;5.30;99.90
20432;DHT22;10375;49.136;10.366;2024-02-23T02:05:15;5.30;99.90
20432;DHT22;10375;49.136;10.366;2024-02-23T02:07:42;5.30;99.90
20432;DHT22;10375;49.136;10.366;2024-02-23T02:10:10;5.20;99.90
20432;DHT22;10375;49.136;10.366;2024-02-23T02:12:37;5.20;99.90
20432;DHT22;10375;49.136;10.366;2024-02-23T02:15:05;5.20;99.90
20432;DHT22;10375;49.136;10.366;2024-02-23T02:17:32;5.20;99.90
20432;DHT22;10375;49.136;10.366;2024-02-23T02:20:04;5.20;99.90
20432;DHT22;10375;49.136;10.366;2024-02-23T02:22:34;5.20;99.90
20432;DHT22;10375;49.136;10.366;2024-02-23T02:25:02;5.20;99.90
20432;DHT22;10375;49.136;10.366;2024-02-23T02:27:29;5.20;99.90
20432;DHT22;10375;49.136;10.366;2024-02-23T02:29:56;5.20;99.90
20432;DHT22;10375;49.136;10.366;2024-02-23T02:32:24;5.20;99.90
20432;DHT22;10375;49.136;10.366;2024-02-23T02:34:52;5.10;99.90
20432;DHT22;10375;49.136;10.366;2024-02-23T02:37:19;5.20;99.90
20432;DHT22;10375;49.136;10.366;2024-02-23T02:39:46;5.20;99.90
20432;DHT22;10375;49.136;10.366;2024-02-23T02:42:15;5.20;99.90
20432;DHT22;10375;49.136;10.366;2024-02-23T02:44:43;5.20;99.90
20432;DHT22;10375;49.136;10.366;2024-02-23T02:47:10;5.20;99.90
20432;DHT22;10375;49.136;10.366;2024-02-23T02:49:39;5.20;99.90
20432;DHT22;10375;49.136;10.366;2024-02-23T02:52:07;5.10;99.90
20432;DHT22;10375;49.136;10.366;2024-02-23T02:54:35;5.10;99.90
20432;DHT22;10375;49.136;10.366;2024-02-23T02:57:02;5.10;99.90
20432;DHT22;10375;49.136;10.366;2024-02-23T02:59:34;5.10;99.90
20432;DHT22;10375;49.136;10.366;2024-02-23T03:02:02;5.10;99.90
20432;DHT22;10375;49.136;10.366;2024-02-23T03:04:29;5.10;99.90
20432;DHT22;10375;49.136;10.366;2024-02-23T03:06:57;5.20;99.90
20432;DHT22;10375;49.136;10.366;2024-02-23T03:09:24;5.20;99.90
20432;DHT22;10375;49.136;10.366;2024-02-23T03:11:51;5.20;99.90
20432;DHT22;10375;49.136;10.366;2024-02-23T03:14:19;5.30;99.90
20432;DHT22;10375;49.136;10.366;2024-02-23T03:16:49;5.30;99.90
20432;DHT22;10375;49.136;10.366;2024-02-23T03:19:16;5.30;99.90
20432;DHT22;10375;49.136;10.366;2024-02-23T03:21:45;5.30;99.90
20432;DHT22;10375;49.136;10.366;2024-02-23T03:24:12;5.40;99.90
20432;DHT22;10375;49.136;10.366;2024-02-23T03:26:39;5.30;99.90
20432;DHT22;10375;49.136;10.366;2024-02-23T03:29:07;5.30;99.90
20432;DHT22;10375;49.136;10.366;2024-02-23T03:31:34;5.30;99.90
20432;DHT22;10375;49.136;10.366;2024-02-23T03:34:02;5.40;99.90
20432;DHT22;10375;49.136;10.366;2024-02-23T03:36:30;5.40;99.90
20432;DHT22;10375;49.136;10.366;2024-02-23T03:38:57;5.40;99.90
20432;DHT22;10375;49.136;10.366;2024-02-23T03:41:24;5.30;99.90
20432;DHT22;10375;49.136;10.366;2024-02-23T03:43:51;5.30;99.90
20432;DHT22;10375;49.136;10.366;2024-02-23T03:46:21;5.30;99.90
20432;DHT22;10375;49.136;10.366;2024-02-23T03:48:51;5.30;99.90
20432;DHT22;10375;49.136;10.366;2024-02-23T03:51:24;5.20;99.90
20432;DHT22;10375;49.136;10.366;2024-02-23T03:53:52;5.10;99.90
20432;DHT22;10375;49.136;10.366;2024-02-23T03:56:20;5.10;99.90
20432;DHT22;10375;49.136;10.366;2024-02-23T03:58:48;5.00;99.90
20432;DHT22;10375;49.136;10.366;2024-02-23T04:01:16;4.90;99.90
20432;DHT22;10375;49.136;10.366;2024-02-23T04:03:43;4.80;99.90
20432;DHT22;10375;49.136;10.366;2024-02-23T04:06:11;4.80;99.90
20432;DHT22;10375;49.136;10.366;2024-02-23T04:08:38;4.80;99.90
20432;DHT22;10375;49.136;10.366;2024-02-23T04:11:05;4.70;99.90
20432;DHT22;10375;49.136;10.366;2024-02-23T04:13:32;4.70;99.90
20432;DHT22;10375;49.136;10.366;2024-02-23T04:16:01;4.70;99.90
20432;DHT22;10375;49.136;10.366;2024-02-23T04:18:29;4.60;99.90
20432;DHT22;10375;49.136;10.366;2024-02-23T04:20:57;4.70;99.90
20432;DHT22;10375;49.136;10.366;2024-02-23T04:23:25;4.60;99.90
20432;DHT22;10375;49.136;10.366;2024-02-23T04:25:52;4.60;99.90
20432;DHT22;10375;49.136;10.366;2024-02-23T04:28:19;4.50;99.90
20432;DHT22;10375;49.136;10.366;2024-02-23T04:30:46;4.50;99.90
20432;DHT22;10375;49.136;10.366;2024-02-23T04:33:13;4.50;99.90
20432;DHT22;10375;49.136;10.366;2024-02-23T04:35:41;4.50;99.90
20432;DHT22;10375;49.136;10.366;2024-02-23T04:38:08;4.60;99.90
20432;DHT22;10375;49.136;10.366;2024-02-23T04:40:35;4.60;99.90
20432;DHT22;10375;49.136;10.366;2024-02-23T04:43:03;4.50;99.90
20432;DHT22;10375;49.136;10.366;2024-02-23T04:45:30;4.50;99.90
20432;DHT22;10375;49.136;10.366;2024-02-23T04:47:57;4.50;99.90
20432;DHT22;10375;49.136;10.366;2024-02-23T04:50:24;4.60;99.90
20432;DHT22;10375;49.136;10.366;2024-02-23T04:52:53;4.50;99.90
20432;DHT22;10375;49.136;10.366;2024-02-23T04:55:20;4.50;99.90
20432;DHT22;10375;49.136;10.366;2024-02-23T04:57:47;4.50;99.90
20432;DHT22;10375;49.136;10.366;2024-02-23T05:00:15;4.50;99.90
20432;DHT22;10375;49.136;10.366;2024-02-23T05:02:42;4.40;99.90
20432;DHT22;10375;49.136;10.366;2024-02-23T05:05:10;4.40;99.90
20432;DHT22;10375;49.136;10.366;2024-02-23T05:07:41;4.40;99.90
20432;DHT22;10375;49.136;10.366;2024-02-23T05:10:09;4.40;99.90
20432;DHT22;10375;49.136;10.366;2024-02-23T05:12:36;4.40;99.90
20432;DHT22;10375;49.136;10.366;2024-02-23T05:15:04;4.40;99.90
20432;DHT22;10375;49.136;10.366;2024-02-23T05:17:31;4.40;99.90
20432;DHT22;10375;49.136;10.366;2024-02-23T05:19:59;4.40;99.90
20432;DHT22;10375;49.136;10.366;2024-02-23T05:22:26;4.40;99.90
20432;DHT22;10375;49.136;10.366;2024-02-23T05:24:53;4.40;99.90
20432;DHT22;10375;49.136;10.366;2024-02-23T05:27:20;4.40;99.90
20432;DHT22;10375;49.136;10.366;2024-02-23T05:29:47;4.40;99.90
20432;DHT22;10375;49.136;10.366;2024-02-23T05:32:15;4.40;99.90
20432;DHT22;10375;49.136;10.366;2024-02-23T05:34:44;4.40;99.90
20432;DHT22;10375;49.136;10.366;2024-02-23T05:37:11;4.40;99.90
20432;DHT22;10375;49.136;10.366;2024-02-23T05:39:39;4.40;99.90
20432;DHT22;10375;49.136;10.366;2024-02-23T05:42:08;4.40;99.90
20432;DHT22;10375;49.136;10.366;2024-02-23T05:44:35;4.30;99.90
20432;DHT22;10375;49.136;10.366;2024-02-23T05:47:03;4.30;99.90
20432;DHT22;10375;49.136;10.366;2024-02-23T05:49:30;4.30;99.90
20432;DHT22;10375;49.136;10.366;2024-02-23T05:51:58;4.30;99.90
20432;DHT22;10375;49.136;10.366;2024-02-23T05:54:25;4.30;99.90
20432;DHT22;10375;49.136;10.366;2024-02-23T05:56:54;4.20;99.90
20432;DHT22;10375;49.136;10.366;2024-02-23T05:59:21;4.20;99.90
20432;DHT22;10375;49.136;10.366;2024-02-23T06:01:49;4.20;99.90
20432;DHT22;10375;49.136;10.366;2024-02-23T06:04:16;4.20;99.90
20432;DHT22;10375;49.136;10.366;2024-02-23T06:06:43;4.20;99.90
20432;DHT22;10375;49.136;10.366;2024-02-23T06:09:11;4.20;99.90
20432;DHT22;10375;49.136;10.366;2024-02-23T06:11:38;4.20;99.90
20432;DHT22;10375;49.136;10.366;2024-02-23T06:14:05;4.20;99.90
20432;DHT22;10375;49.136;10.366;2024-02-23T06:16:33;4.20;99.90
20432;DHT22;10375;49.136;10.366;2024-02-23T06:19:00;4.20;99.90
20432;DHT22;10375;49.136;10.366;2024-02-23T06:21:28;4.20;99.90
20432;DHT22;10375;49.136;10.366;2024-02-23T06:23:55;4.20;99.90
20432;DHT22;10375;49.136;10.366;2024-02-23T06:26:22;4.30;99.90
20432;DHT22;10375;49.136;10.366;2024-02-23T06:28:50;4.20;99.90
20432;DHT22;10375;49.136;10.366;2024-02-23T06:31:17;4.20;99.90
20432;DHT22;10375;49.136;10.366;2024-02-23T06:33:44;4.20;99.90
20432;DHT22;10375;49.136;10.366;2024-02-23T06:36:17;4.20;99.90
20432;DHT22;10375;49.136;10.366;2024-02-23T06:38:45;4.20;99.90
20432;DHT22;10375;49.136;10.366;2024-02-23T06:41:22;4.20;99.90
20432;DHT22;10375;49.136;10.366;2024-02-23T06:43:50;4.10;99.90
20432;DHT22;10375;49.136;10.366;2024-02-23T06:46:19;4.20;99.90
20432;DHT22;10375;49.136;10.366;2024-02-23T06:48:49;4.20;99.90
20432;DHT22;10375;49.136;10.366;2024-02-23T06:51:17;4.10;99.90
20432;DHT22;10375;49.136;10.366;2024-02-23T06:53:44;4.20;99.90
20432;DHT22;10375;49.136;10.366;2024-02-23T06:56:11;4.20;99.90
20432;DHT22;10375;49.136;10.366;2024-02-23T06:58:41;4.20;99.90
20432;DHT22;10375;49.136;10.366;2024-02-23T07:01:08;4.10;99.90
20432;DHT22;10375;49.136;10.366;2024-02-23T07:03:41;4.10;99.90
20432;DHT22;10375;49.136;10.366;2024-02-23T07:06:11;4.00;99.90
20432;DHT22;10375;49.136;10.366;2024-02-23T07:08:41;4.00;99.90
20432;DHT22;10375;49.136;10.366;2024-02-23T07:11:09;4.10;99.90
20432;DHT22;10375;49.136;10.366;2024-02-23T07:13:43;4.10;99.90
20432;DHT22;10375;49.136;10.366;2024-02-23T07:16:11;4.10;99.90
20432;DHT22;10375;49.136;10.366;2024-02-23T07:18:41;4.00;99.90
20432;DHT22;10375;49.136;10.366;2024-02-23T07:21:09;4.00;99.90
20432;DHT22;10375;49.136;10.366;2024-02-23T07:23:36;4.00;99.90
20432;DHT22;10375;49.136;10.366;2024-02-23T07:26:03;4.00;99.90
20432;DHT22;10375;49.136;10.366;2024-02-23T07:28:30;4.20;99.90
20432;DHT22;10375;49.136;10.366;2024-02-23T07:30:59;4.10;99.90
20432;DHT22;10375;49.136;10.366;2024-02-23T07:33:27;4.20;99.90
20432;DHT22;10375;49.136;10.366;2024-02-23T07:35:55;4.20;99.90
20432;DHT22;10375;49.136;10.366;2024-02-23T07:38:22;4.30;99.90
20432;DHT22;10375;49.136;10.366;2024-02-23T07:40:49;4.30;99.90
20432;DHT22;10375;49.136;10.366;2024-02-23T07:43:16;4.40;99.90
20432;DHT22;10375;49.136;10.366;2024-02-23T07:45:44;4.40;99.90
20432;DHT22;10375;49.136;10.366;2024-02-23T07:48:11;4.50;99.90
20432;DHT22;10375;49.136;10.366;2024-02-23T07:50:38;4.50;99.90
20432;DHT22;10375;49.136;10.366;2024-02-23T07:53:06;4.60;99.90
20432;DHT22;10375;49.136;10.366;2024-02-23T07:55:33;4.50;99.90
20432;DHT22;10375;49.136;10.366;2024-02-23T07:58:00;4.60;99.90
20432;DHT22;10375;49.136;10.366;2024-02-23T08:00:28;4.70;99.90
20432;DHT22;10375;49.136;10.366;2024-02-23T08:02:56;4.60;99.90
20432;DHT22;10375;49.136;10.366;2024-02-23T08:08:34;4.60;99.90
20432;DHT22;10375;49.136;10.366;2024-02-23T08:11:03;4.70;99.90
20432;DHT22;10375;49.136;10.366;2024-02-23T08:13:53;4.70;99.90
20432;DHT22;10375;49.136;10.366;2024-02-23T08:16:46;4.80;99.90
20432;DHT22;10375;49.136;10.366;2024-02-23T08:19:14;4.80;99.90
20432;DHT22;10375;49.136;10.366;2024-02-23T08:22:03;4.90;99.90
20432;DHT22;10375;49.136;10.366;2024-02-23T08:24:31;4.90;99.90
20432;DHT22;10375;49.136;10.366;2024-02-23T08:27:00;5.00;99.90
20432;DHT22;10375;49.136;10.366;2024-02-23T08:29:27;5.00;99.90
20432;DHT22;10375;49.136;10.366;2024-02-23T08:32:08;5.00;99.90
20432;DHT22;10375;49.136;10.366;2024-02-23T08:34:36;5.00;99.90
20432;DHT22;10375;49.136;10.366;2024-02-23T08:37:05;5.00;99.90
20432;DHT22;10375;49.136;10.366;2024-02-23T08:39:32;5.10;99.90
20432;DHT22;10375;49.136;10.366;2024-02-23T08:42:01;5.10;99.90
20432;DHT22;10375;49.136;10.366;2024-02-23T08:44:29;5.20;99.90
20432;DHT22;10375;49.136;10.366;2024-02-23T08:46:58;5.20;99.90
20432;DHT22;10375;49.136;10.366;2024-02-23T08:49:26;5.20;99.90
20432;DHT22;10375;49.136;10.366;2024-02-23T08:51:54;5.20;99.90
20432;DHT22;10375;49.136;10.366;2024-02-23T08:54:21;5.30;99.90
20432;DHT22;10375;49.136;10.366;2024-02-23T08:56:59;5.30;99.90
20432;DHT22;10375;49.136;10.366;2024-02-23T08:59:26;5.30;99.90
20432;DHT22;10375;49.136;10.366;2024-02-23T09:01:54;5.30;99.90
20432;DHT22;10375;49.136;10.366;2024-02-23T09:07:21;5.40;99.90
20432;DHT22;10375;49.136;10.366;2024-02-23T09:09:49;5.40;99.90
20432;DHT22;10375;49.136;10.366;2024-02-23T09:12:16;5.50;99.90
20432;DHT22;10375;49.136;10.366;2024-02-23T09:14:44;5.50;99.90
20432;DHT22;10375;49.136;10.366;2024-02-23T09:17:13;5.50;99.90
20432;DHT22;10375;49.136;10.366;2024-02-23T09:19:40;5.50;99.90
20432;DHT22;10375;49.136;10.366;2024-02-23T09:24:57;5.60;99.90
20432;DHT22;10375;49.136;10.366;2024-02-23T09:27:25;5.60;99.90
20432;DHT22;10375;49.136;10.366;2024-02-23T09:29:52;5.70;99.90
20432;DHT22;10375;49.136;10.366;2024-02-23T09:32:21;5.70;99.90
20432;DHT22;10375;49.136;10.366;2024-02-23T09:34:49;5.70;99.90
20432;DHT22;10375;49.136;10.366;2024-02-23T09:37:22;5.70;99.90
20432;DHT22;10375;49.136;10.366;2024-02-23T09:39:59;5.70;99.90
20432;DHT22;10375;49.136;10.366;2024-02-23T09:42:41;5.60;99.90
20432;DHT22;10375;49.136;10.366;2024-02-23T09:45:12;5.70;99.90
20432;DHT22;10375;49.136;10.366;2024-02-23T09:47:53;5.70;99.90
20432;DHT22;10375;49.136;10.366;2024-02-23T09:50:23;5.70;99.90
20432;DHT22;10375;49.136;10.366;2024-02-23T09:53:01;5.70;99.90
20432;DHT22;10375;49.136;10.366;2024-02-23T09:55:35;5.70;99.90
20432;DHT22;10375;49.136;10.366;2024-02-23T09:58:03;5.80;99.90
20432;DHT22;10375;49.136;10.366;2024-02-23T10:00:31;5.90;99.90
20432;DHT22;10375;49.136;10.366;2024-02-23T10:03:15;6.00;99.90
20432;DHT22;10375;49.136;10.366;2024-02-23T10:05:43;6.00;99.90
20432;DHT22;10375;49.136;10.366;2024-02-23T10:08:14;6.00;99.90
20432;DHT22;10375;49.136;10.366;2024-02-23T10:11:00;6.10;99.90
20432;DHT22;10375;49.136;10.366;2024-02-23T10:13:29;6.10;99.90
20432;DHT22;10375;49.136;10.366;2024-02-23T10:15:59;6.20;99.90
20432;DHT22;10375;49.136;10.366;2024-02-23T10:18:48;6.10;99.90
20432;DHT22;10375;49.136;10.366;2024-02-23T10:21:16;6.10;99.90
20432;DHT22;10375;49.136;10.366;2024-02-23T10:23:45;6.10;99.90
20432;DHT22;10375;49.136;10.366;2024-02-23T10:26:15;6.10;99.90
20432;DHT22;10375;49.136;10.366;2024-02-23T10:28:58;6.20;99.90
20432;DHT22;10375;49.136;10.366;2024-02-23T10:31:26;6.30;99.90
20432;DHT22;10375;49.136;10.366;2024-02-23T10:33:54;6.30;99.90
20432;DHT22;10375;49.136;10.366;2024-02-23T10:36:27;6.40;99.90
20432;DHT22;10375;49.136;10.366;2024-02-23T10:39:06;6.40;99.90
20432;DHT22;10375;49.136;10.366;2024-02-23T10:41:35;6.40;99.90
20432;DHT22;10375;49.136;10.366;2024-02-23T10:44:07;6.40;99.90
20432;DHT22;10375;49.136;10.366;2024-02-23T10:46:41;6.50;99.90
20432;DHT22;10375;49.136;10.366;2024-02-23T10:49:09;6.50;99.90
20432;DHT22;10375;49.136;10.366;2024-02-23T10:51:39;6.50;99.90
20432;DHT22;10375;49.136;10.366;2024-02-23T10:54:10;6.50;99.90
20432;DHT22;10375;49.136;10.366;2024-02-23T10:56:39;6.50;99.90
20432;DHT22;10375;49.136;10.366;2024-02-23T10:59:08;6.60;99.90
20432;DHT22;10375;49.136;10.366;2024-02-23T11:01:36;6.60;99.90
20432;DHT22;10375;49.136;10.366;2024-02-23T11:04:07;6.60;99.90
20432;DHT22;10375;49.136;10.366;2024-02-23T11:06:54;6.60;99.90
20432;DHT22;10375;49.136;10.366;2024-02-23T11:09:31;6.70;99.90
20432;DHT22;10375;49.136;10.366;2024-02-23T11:11:59;6.60;99.90
20432;DHT22;10375;49.136;10.366;2024-02-23T11:14:36;6.60;99.90
20432;DHT22;10375;49.136;10.366;2024-02-23T11:17:05;6.50;99.90
20432;DHT22;10375;49.136;10.366;2024-02-23T11:19:50;6.50;99.90
20432;DHT22;10375;49.136;10.366;2024-02-23T11:22:35;6.40;99.90
20432;DHT22;10375;49.136;10.366;2024-02-23T11:25:07;6.40;99.90
20432;DHT22;10375;49.136;10.366;2024-02-23T11:27:53;6.40;99.90
20432;DHT22;10375;49.136;10.366;2024-02-23T11:30:20;6.50;99.90
20432;DHT22;10375;49.136;10.366;2024-02-23T11:33:10;6.50;99.90
20432;DHT22;10375;49.136;10.366;2024-02-23T11:35:52;6.60;99.90
20432;DHT22;10375;49.136;10.366;2024-02-23T11:38:27;6.60;99.90
20432;DHT22;10375;49.136;10.366;2024-02-23T11:41:15;6.70;99.90
20432;DHT22;10375;49.136;10.366;2024-02-23T11:43:42;6.70;99.90
20432;DHT22;10375;49.136;10.366;2024-02-23T11:46:11;6.80;99.90
20432;DHT22;10375;49.136;10.366;2024-02-23T11:49:01;6.90;99.90
20432;DHT22;10375;49.136;10.366;2024-02-23T11:51:29;7.00;99.90
20432;DHT22;10375;49.136;10.366;2024-02-23T11:54:00;7.00;99.90
20432;DHT22;10375;49.136;10.366;2024-02-23T12:00:28;6.90;99.90
20432;DHT22;10375;49.136;10.366;2024-02-23T12:02:57;6.70;99.90
20432;DHT22;10375;49.136;10.366;2024-02-23T12:05:35;6.70;99.90
20432;DHT22;10375;49.136;10.366;2024-02-23T12:08:16;6.70;99.90
20432;DHT22;10375;49.136;10.366;2024-02-23T12:10:44;6.80;99.90
20432;DHT22;10375;49.136;10.366;2024-02-23T12:13:20;6.80;99.90
20432;DHT22;10375;49.136;10.366;2024-02-23T12:15:48;6.80;99.90
20432;DHT22;10375;49.136;10.366;2024-02-23T12:18:15;6.80;99.90
20432;DHT22;10375;49.136;10.366;2024-02-23T12:20:43;6.70;99.90
20432;DHT22;10375;49.136;10.366;2024-02-23T12:23:14;6.90;99.90
20432;DHT22;10375;49.136;10.366;2024-02-23T12:26:10;6.90;99.90
20432;DHT22;10375;49.136;10.366;2024-02-23T12:28:41;7.00;99.90
20432;DHT22;10375;49.136;10.366;2024-02-23T12:31:24;7.00;99.90
20432;DHT22;10375;49.136;10.366;2024-02-23T12:33:54;7.00;99.90
20432;DHT22;10375;49.136;10.366;2024-02-23T12:36:24;6.90;99.90
20432;DHT22;10375;49.136;10.366;2024-02-23T12:38:57;6.90;99.90
20432;DHT22;10375;49.136;10.366;2024-02-23T12:41:25;6.80;99.90
20432;DHT22;10375;49.136;10.366;2024-02-23T12:43:52;6.90;99.90
20432;DHT22;10375;49.136;10.366;2024-02-23T12:46:20;6.90;99.90
20432;DHT22;10375;49.136;10.366;2024-02-23T12:48:48;7.00;99.90
20432;DHT22;10375;49.136;10.366;2024-02-23T12:51:15;7.10;99.90
20432;DHT22;10375;49.136;10.366;2024-02-23T12:53:43;7.20;99.90
20432;DHT22;10375;49.136;10.366;2024-02-23T12:56:12;7.20;99.90
20432;DHT22;10375;49.136;10.366;2024-02-23T12:58:44;7.30;99.90
20432;DHT22;10375;49.136;10.366;2024-02-23T13:01:12;7.40;99.90
20432;DHT22;10375;49.136;10.366;2024-02-23T13:03:40;7.20;99.90
20432;DHT22;10375;49.136;10.366;2024-02-23T13:06:10;7.10;99.90
20432;DHT22;10375;49.136;10.366;2024-02-23T13:08:48;7.00;99.90
20432;DHT22;10375;49.136;10.366;2024-02-23T13:11:15;7.00;99.90
20432;DHT22;10375;49.136;10.366;2024-02-23T13:13:42;7.00;99.90
20432;DHT22;10375;49.136;10.366;2024-02-23T13:16:14;7.00;99.90
20432;DHT22;10375;49.136;10.366;2024-02-23T13:18:49;7.00;99.90
20432;DHT22;10375;49.136;10.366;2024-02-23T13:21:17;7.00;99.90
20432;DHT22;10375;49.136;10.366;2024-02-23T13:23:47;7.10;99.90
20432;DHT22;10375;49.136;10.366;2024-02-23T13:26:15;7.00;99.90
20432;DHT22;10375;49.136;10.366;2024-02-23T13:32:30;7.00;99.90
20432;DHT22;10375;49.136;10.366;2024-02-23T13:34:58;7.00;99.90
20432;DHT22;10375;49.136;10.366;2024-02-23T13:37:28;7.00;99.90
20432;DHT22;10375;49.136;10.366;2024-02-23T13:39:56;7.10;99.90
20432;DHT22;10375;49.136;10.366;2024-02-23T13:42:26;7.10;99.90
20432;DHT22;10375;49.136;10.366;2024-02-23T13:44:53;7.00;99.90
20432;DHT22;10375;49.136;10.366;2024-02-23T13:47:28;7.00;99.90
20432;DHT22;10375;49.136;10.366;2024-02-23T13:49:56;7.00;99.90
20432;DHT22;10375;49.136;10.366;2024-02-23T13:52:35;7.00;99.90
20432;DHT22;10375;49.136;10.366;2024-02-23T13:55:03;6.90;99.90
20432;DHT22;10375;49.136;10.366;2024-02-23T13:57:50;6.80;99.90
20432;DHT22;10375;49.136;10.366;2024-02-23T14:00:18;6.90;99.90
20432;DHT22;10375;49.136;10.366;2024-02-23T14:02:54;6.80;99.90
20432;DHT22;10375;49.136;10.366;2024-02-23T14:05:43;6.70;99.90
20432;DHT22;10375;49.136;10.366;2024-02-23T14:11:30;6.80;99.90
20432;DHT22;10375;49.136;10.366;2024-02-23T14:14:01;6.90;99.90
20432;DHT22;10375;49.136;10.366;2024-02-23T14:16:31;6.90;99.90
20432;DHT22;10375;49.136;10.366;2024-02-23T14:18:59;6.90;99.90
20432;DHT22;10375;49.136;10.366;2024-02-23T14:21:29;7.00;99.90
20432;DHT22;10375;49.136;10.366;2024-02-23T14:23:57;6.90;99.90
20432;DHT22;10375;49.136;10.366;2024-02-23T14:26:43;6.90;99.90
20432;DHT22;10375;49.136;10.366;2024-02-23T14:29:20;6.90;99.90
20432;DHT22;10375;49.136;10.366;2024-02-23T14:31:50;6.90;99.90
20432;DHT22;10375;49.136;10.366;2024-02-23T14:34:19;6.90;99.90
20432;DHT22;10375;49.136;10.366;2024-02-23T14:36:50;6.80;99.90
20432;DHT22;10375;49.136;10.366;2024-02-23T14:39:20;6.80;99.90
20432;DHT22;10375;49.136;10.366;2024-02-23T14:41:49;6.80;99.90
20432;DHT22;10375;49.136;10.366;2024-02-23T14:44:20;6.80;99.90
20432;DHT22;10375;49.136;10.366;2024-02-23T14:46:49;6.70;99.90
20432;DHT22;10375;49.136;10.366;2024-02-23T14:49:16;6.70;99.90
20432;DHT22;10375;49.136;10.366;2024-02-23T14:51:44;6.70;99.90
20432;DHT22;10375;49.136;10.366;2024-02-23T14:54:33;6.70;99.90
20432;DHT22;10375;49.136;10.366;2024-02-23T14:57:00;6.70;99.90
20432;DHT22;10375;49.136;10.366;2024-02-23T14:59:28;6.70;99.90
20432;DHT22;10375;49.136;10.366;2024-02-23T15:01:55;6.80;99.90
20432;DHT22;10375;49.136;10.366;2024-02-23T15:04:23;6.80;99.90
20432;DHT22;10375;49.136;10.366;2024-02-23T15:06:50;6.70;99.90
20432;DHT22;10375;49.136;10.366;2024-02-23T15:09:26;6.70;99.90
20432;DHT22;10375;49.136;10.366;2024-02-23T15:11:53;6.70;99.90
20432;DHT22;10375;49.136;10.366;2024-02-23T15:14:22;6.60;99.90
20432;DHT22;10375;49.136;10.366;2024-02-23T15:20:15;6.60;99.90
20432;DHT22;10375;49.136;10.366;2024-02-23T15:23:07;6.50;99.90
20432;DHT22;10375;49.136;10.366;2024-02-23T15:25:36;6.50;99.90
20432;DHT22;10375;49.136;10.366;2024-02-23T15:28:37;6.40;99.90
20432;DHT22;10375;49.136;10.366;2024-02-23T15:31:32;6.40;99.90
20432;DHT22;10375;49.136;10.366;2024-02-23T15:34:09;6.40;99.90
20432;DHT22;10375;49.136;10.366;2024-02-23T15:36:40;6.40;99.90
20432;DHT22;10375;49.136;10.366;2024-02-23T15:39:12;6.40;99.90
20432;DHT22;10375;49.136;10.366;2024-02-23T15:41:43;6.40;99.90
20432;DHT22;10375;49.136;10.366;2024-02-23T15:44:11;6.40;99.90
20432;DHT22;10375;49.136;10.366;2024-02-23T15:46:42;6.30;99.90
20432;DHT22;10375;49.136;10.366;2024-02-23T15:49:15;6.30;99.90
20432;DHT22;10375;49.136;10.366;2024-02-23T15:52:07;6.30;99.90
20432;DHT22;10375;49.136;10.366;2024-02-23T15:55:02;6.20;99.90
20432;DHT22;10375;49.136;10.366;2024-02-23T15:58:01;6.10;99.90
20432;DHT22;10375;49.136;10.366;2024-02-23T16:01:50;6.10;99.90
20432;DHT22;10375;49.136;10.366;2024-02-23T16:05:43;6.00;99.90
20432;DHT22;10375;49.136;10.366;2024-02-23T16:08:56;5.90;99.90
20432;DHT22;10375;49.136;10.366;2024-02-23T16:19:12;5.70;99.90
20432;DHT22;10375;49.136;10.366;2024-02-23T17:23:27;4.50;99.90
20432;DHT22;10375;49.136;10.366;2024-02-23T17:31:49;4.30;99.90